Genco Auvergne — V7ES3 — position and weather

sailwx.info

Track history (hours):
 
Tides and Currents Weather Stations Pressure Air Temp Water Temp Dewpoint Dewpoint Depression Visibility Wind Speed Wind Dir Waves Ship Positions

Genco Auvergne

Last reported at 2017-Apr-29 06:28 UTC. Time now 2017-Apr-29 09:13 UTC.
Position N 35°26' W 126°18'.

Length 190 m; draft 7.1 m.

Type: Cargo ship. MMSI: 538002570.

Date/timePositionNaut miles runAvg speedWind from/ knotsBaromVisibWave heightAir tempDewpointWater temp
2017-Apr-29 06:28N 35°26' W 126°18'510.2
2017-Apr-29 06:00N 35°21' W 126°15'510.3
2017-Apr-29 05:30N 35°17' W 126°12'710.3
2017-Apr-29 04:50N 35°11' W 126°07'310.5
2017-Apr-29 04:30N 35°08' W 126°05'3210.1
2017-Apr-29 01:20N 34°41' W 125°44'3 9.8
2017-Apr-29 00:59N 34°38' W 125°42'5 9.7
2017-Apr-29 00:30N 34°34' W 125°39'5 9.7
2017-Apr-28 23:59N 34°30' W 125°36'5 9.7
2017-Apr-28 23:30N 34°26' W 125°33'5 9.9
2017-Apr-28 23:00N 34°22' W 125°30'1010.0
2017-Apr-28 21:59N 34°13' W 125°23'1810.4
2017-Apr-28 20:15N 33°58' W 125°12'310.4
2017-Apr-28 20:00N 33°56' W 125°10'170 9.9
2017-Apr-28 02:44N 31°28' W 123°30'2 9.2
2017-Apr-28 02:30N 31°26' W 123°29'5 9.3
2017-Apr-28 01:57N 31°22' W 123°26'4 8.2
2017-Apr-28 01:30N 31°19' W 123°23'5 9.1
2017-Apr-28 00:59N 31°15' W 123°20'5 9.5
2017-Apr-28 00:30N 31°12' W 123°16'5 9.2
2017-Apr-28 00:00N 31°08' W 123°13'4 8.8
2017-Apr-27 23:30N 31°05' W 123°09'5 9.3
2017-Apr-27 23:00N 31°02' W 123°05'5 9.5
2017-Apr-27 22:30N 30°58' W 123°01'5 9.3
2017-Apr-27 21:59N 30°55' W 122°57'5 9.6
2017-Apr-27 21:30N 30°52' W 122°53'6 9.5
2017-Apr-27 20:50N 30°48' W 122°47'410.0
2017-Apr-27 20:24N 30°45' W 122°43'410.0
2017-Apr-27 20:00N 30°43' W 122°40'510.3
2017-Apr-27 19:29N 30°40' W 122°35'510.5
2017-Apr-27 18:59N 30°37' W 122°29'810.7
2017-Apr-27 18:14N 30°34' W 122°21'1210.4
2017-Apr-27 17:07N 30°28' W 122°09'210.6
2017-Apr-27 16:58N 30°27' W 122°08'  
Track history (hours):
 
Tides and Currents Weather Stations Pressure Air Temp Water Temp Dewpoint Dewpoint Depression Visibility Wind Speed Wind Dir Waves Ship Positions

Genco Auvergne

Last reported at 2017-Apr-29 06:28 UTC. Time now 2017-Apr-29 09:13 UTC.
Position N 35°26' W 126°18'.

Length 190 m; draft 7.1 m.

Type: Cargo ship. MMSI: 538002570.

Date/timePositionNaut miles runAvg speedWind from/ knotsBaromVisibWave heightAir tempDewpointWater temp
2017-Apr-29 06:28N 35°26' W 126°18'510.2
2017-Apr-29 06:00N 35°21' W 126°15'510.3
2017-Apr-29 05:30N 35°17' W 126°12'710.3
2017-Apr-29 04:50N 35°11' W 126°07'310.5
2017-Apr-29 04:30N 35°08' W 126°05'3210.1
2017-Apr-29 01:20N 34°41' W 125°44'3 9.8
2017-Apr-29 00:59N 34°38' W 125°42'5 9.7
2017-Apr-29 00:30N 34°34' W 125°39'5 9.7
2017-Apr-28 23:59N 34°30' W 125°36'5 9.7
2017-Apr-28 23:30N 34°26' W 125°33'5 9.9
2017-Apr-28 23:00N 34°22' W 125°30'1010.0
2017-Apr-28 21:59N 34°13' W 125°23'1810.4
2017-Apr-28 20:15N 33°58' W 125°12'310.4
2017-Apr-28 20:00N 33°56' W 125°10'170 9.9
2017-Apr-28 02:44N 31°28' W 123°30'2 9.2
2017-Apr-28 02:30N 31°26' W 123°29'5 9.3
2017-Apr-28 01:57N 31°22' W 123°26'4 8.2
2017-Apr-28 01:30N 31°19' W 123°23'5 9.1
2017-Apr-28 00:59N 31°15' W 123°20'5 9.5
2017-Apr-28 00:30N 31°12' W 123°16'5 9.2
2017-Apr-28 00:00N 31°08' W 123°13'4 8.8
2017-Apr-27 23:30N 31°05' W 123°09'5 9.3
2017-Apr-27 23:00N 31°02' W 123°05'5 9.5
2017-Apr-27 22:30N 30°58' W 123°01'5 9.3
2017-Apr-27 21:59N 30°55' W 122°57'5 9.6
2017-Apr-27 21:30N 30°52' W 122°53'6 9.5
2017-Apr-27 20:50N 30°48' W 122°47'410.0
2017-Apr-27 20:24N 30°45' W 122°43'410.0
2017-Apr-27 20:00N 30°43' W 122°40'510.3
2017-Apr-27 19:29N 30°40' W 122°35'510.5
2017-Apr-27 18:59N 30°37' W 122°29'810.7
2017-Apr-27 18:14N 30°34' W 122°21'1210.4
2017-Apr-27 17:07N 30°28' W 122°09'210.6
2017-Apr-27 16:58N 30°27' W 122°08'  

Dump ship's entire track history